createdAt,value
2022-12-01T00:00:23.813Z,90.55
2022-12-01T00:01:23.989Z,90.59
2022-12-01T00:02:24.181Z,90.57
2022-12-01T00:03:24.228Z,90.54
2022-12-01T00:04:24.415Z,90.49
2022-12-01T00:05:24.460Z,90.48
2022-12-01T00:06:24.599Z,90.54
2022-12-01T00:07:24.812Z,90.60
2022-12-01T00:08:24.882Z,90.62
2022-12-01T00:09:25.080Z,90.57
2022-12-01T00:10:25.152Z,90.53
2022-12-01T00:11:25.270Z,90.50
2022-12-01T00:12:25.432Z,90.47
2022-12-01T00:13:25.539Z,90.45
2022-12-01T00:14:25.699Z,90.37
2022-12-01T00:15:25.834Z,90.32
2022-12-01T00:16:26.002Z,90.27
2022-12-01T00:17:26.076Z,90.23
2022-12-01T00:18:26.227Z,90.21
2022-12-01T00:19:26.395Z,90.19
2022-12-01T00:20:26.484Z,90.14
2022-12-01T00:21:26.617Z,90.14
2022-12-01T00:22:26.750Z,90.16
2022-12-01T00:23:26.867Z,90.12
2022-12-01T00:24:27.058Z,90.13
2022-12-01T00:25:27.144Z,90.20
2022-12-01T00:26:27.282Z,90.20
2022-12-01T00:27:27.397Z,90.25
2022-12-01T00:28:27.527Z,90.29
2022-12-01T00:29:27.758Z,90.32
2022-12-01T00:30:27.784Z,90.30
2022-12-01T00:31:28.058Z,90.32
2022-12-01T00:32:28.055Z,90.39
2022-12-01T00:33:28.187Z,90.40
2022-12-01T00:34:28.353Z,90.42
2022-12-01T00:35:28.454Z,90.48
2022-12-01T00:36:28.585Z,90.53
2022-12-01T00:37:28.722Z,90.55
2022-12-01T00:38:28.853Z,90.58
2022-12-01T00:39:29.020Z,90.63
2022-12-01T00:40:29.104Z,90.66
2022-12-01T00:41:29.233Z,90.67
2022-12-01T00:42:29.363Z,90.69
2022-12-01T00:43:29.493Z,90.67
2022-12-01T00:44:29.655Z,90.75
2022-12-01T00:45:29.885Z,90.86
2022-12-01T00:46:29.968Z,90.93
2022-12-01T00:47:30.010Z,90.91
2022-12-01T00:48:30.144Z,90.94
2022-12-01T00:49:30.304Z,90.98
2022-12-01T00:50:30.411Z,91.01
2022-12-01T00:51:30.531Z,91.04
2022-12-01T00:52:30.660Z,91.08
2022-12-01T00:53:30.788Z,91.08
2022-12-01T00:54:30.929Z,91.02
2022-12-01T00:55:31.069Z,91.03
2022-12-01T00:56:31.212Z,91.08
2022-12-01T00:57:31.341Z,91.13
2022-12-01T00:58:31.496Z,91.15
2022-12-01T00:59:31.667Z,91.16
2022-12-01T01:00:31.748Z,91.17
2022-12-01T01:01:31.929Z,91.17
2022-12-01T01:02:32.053Z,91.21
2022-12-01T01:03:32.136Z,91.22
2022-12-01T01:04:32.306Z,91.19
2022-12-01T01:05:32.395Z,91.18
2022-12-01T01:06:32.544Z,91.17
2022-12-01T01:07:33.205Z,91.21
2022-12-01T01:08:32.775Z,91.23
2022-12-01T01:09:32.981Z,91.27
2022-12-01T01:10:33.045Z,91.24
2022-12-01T01:11:33.176Z,91.24
2022-12-01T01:12:33.313Z,91.22
2022-12-01T01:13:33.459Z,91.22
2022-12-01T01:14:33.594Z,91.22
2022-12-01T01:15:33.749Z,91.24
2022-12-01T01:16:33.913Z,91.25
2022-12-01T01:17:34.004Z,91.26
2022-12-01T01:18:34.154Z,91.25
2022-12-01T01:19:34.283Z,91.24
2022-12-01T01:20:34.424Z,91.26
2022-12-01T01:21:34.567Z,91.26
2022-12-01T01:22:34.737Z,91.26
2022-12-01T01:23:34.871Z,91.25
2022-12-01T01:24:34.957Z,91.22
2022-12-01T01:25:35.090Z,91.18
2022-12-01T01:26:35.229Z,91.13
2022-12-01T01:27:35.370Z,91.14
2022-12-01T01:28:35.529Z,91.19
2022-12-01T01:29:35.631Z,91.23
2022-12-01T01:30:35.812Z,91.31
2022-12-01T01:31:35.891Z,91.36
2022-12-01T01:32:36.028Z,91.40
2022-12-01T01:33:36.187Z,91.44
2022-12-01T01:34:36.286Z,91.47
2022-12-01T01:35:36.438Z,91.44
2022-12-01T01:36:36.552Z,91.49
2022-12-01T01:37:36.676Z,91.55
2022-12-01T01:38:36.879Z,91.61
2022-12-01T01:39:36.930Z,91.63
2022-12-01T01:40:37.065Z,91.61
2022-12-01T01:41:37.202Z,91.59
2022-12-01T01:42:37.351Z,91.60
2022-12-01T01:43:37.526Z,91.58
2022-12-01T01:44:37.597Z,91.54
2022-12-01T01:45:37.768Z,91.54
2022-12-01T01:46:37.874Z,91.55
2022-12-01T01:47:38.013Z,91.49
2022-12-01T01:48:38.194Z,91.44
2022-12-01T01:49:38.282Z,91.44
2022-12-01T01:50:38.413Z,91.49
2022-12-01T01:51:38.545Z,91.51
2022-12-01T01:52:38.672Z,91.55
2022-12-01T01:53:38.828Z,91.59
2022-12-01T01:54:38.949Z,91.63
2022-12-01T01:55:39.101Z,91.59
2022-12-01T01:56:39.221Z,91.59
2022-12-01T01:57:39.391Z,91.59
2022-12-01T01:58:39.541Z,91.62
2022-12-01T01:59:39.625Z,91.58
2022-12-01T02:00:39.762Z,91.52
2022-12-01T02:01:39.937Z,91.48
2022-12-01T02:02:40.096Z,91.45
2022-12-01T02:03:40.183Z,91.44
2022-12-01T02:04:40.271Z,91.46
2022-12-01T02:05:40.411Z,91.43
2022-12-01T02:06:40.546Z,91.39
2022-12-01T02:07:40.773Z,91.32
2022-12-01T02:08:40.797Z,91.35
2022-12-01T02:09:40.939Z,91.39
2022-12-01T02:10:41.080Z,91.42
2022-12-01T02:11:41.207Z,91.43
2022-12-01T02:12:41.366Z,91.45
2022-12-01T02:13:41.513Z,91.42
2022-12-01T02:14:41.588Z,91.45
2022-12-01T02:15:41.689Z,91.47
2022-12-01T02:16:41.886Z,91.44
2022-12-01T02:17:42.159Z,91.44
2022-12-01T02:18:42.085Z,91.44
2022-12-01T02:19:42.235Z,91.45
2022-12-01T02:20:42.371Z,91.43
2022-12-01T02:21:42.451Z,91.46
2022-12-01T02:22:42.645Z,91.43
2022-12-01T02:23:42.741Z,91.42
2022-12-01T02:24:42.841Z,91.40
2022-12-01T02:25:42.936Z,91.35
2022-12-01T02:26:43.072Z,91.25
2022-12-01T02:27:43.257Z,91.23
2022-12-01T02:28:43.370Z,91.22
2022-12-01T02:29:43.504Z,91.22
2022-12-01T02:30:43.638Z,91.25
2022-12-01T02:31:43.722Z,91.25
2022-12-01T02:32:43.908Z,91.27
2022-12-01T02:33:43.990Z,91.30
2022-12-01T02:34:44.155Z,91.29
2022-12-01T02:35:44.270Z,91.25
2022-12-01T02:36:44.363Z,91.27
2022-12-01T02:37:44.564Z,91.29
2022-12-01T02:38:44.635Z,91.30
2022-12-01T02:39:44.776Z,91.30
2022-12-01T02:40:44.902Z,91.30
2022-12-01T02:41:45.027Z,91.31
2022-12-01T02:42:45.215Z,91.30
2022-12-01T02:43:45.307Z,91.32
2022-12-01T02:44:45.476Z,91.31
2022-12-01T02:45:45.584Z,91.35
2022-12-01T02:46:45.747Z,91.41
2022-12-01T02:47:46.397Z,91.39
2022-12-01T02:48:45.992Z,91.41
2022-12-01T02:49:46.300Z,91.42
2022-12-01T02:50:46.243Z,91.39
2022-12-01T02:51:46.365Z,91.38
2022-12-01T02:52:46.507Z,91.38
2022-12-01T02:53:46.672Z,91.38
2022-12-01T02:54:46.765Z,91.35
2022-12-01T02:55:46.897Z,91.33
2022-12-01T02:56:47.038Z,91.35
2022-12-01T02:57:47.192Z,91.34
2022-12-01T02:58:47.338Z,91.34
2022-12-01T02:59:47.744Z,91.31
2022-12-01T03:00:47.594Z,91.38
2022-12-01T03:01:47.740Z,91.42
2022-12-01T03:02:47.919Z,91.47
2022-12-01T03:03:47.983Z,91.48
2022-12-01T03:04:48.072Z,91.48
2022-12-01T03:05:48.212Z,91.55
2022-12-01T03:06:48.353Z,91.57
2022-12-01T03:07:48.536Z,91.59
2022-12-01T03:08:48.611Z,91.61
2022-12-01T03:09:49.136Z,91.61
2022-12-01T03:10:48.880Z,91.64
2022-12-01T03:11:49.021Z,91.64
2022-12-01T03:12:49.159Z,91.64
2022-12-01T03:13:49.310Z,91.65
2022-12-01T03:14:49.398Z,91.66
2022-12-01T03:15:49.602Z,91.68
2022-12-01T03:16:49.659Z,91.66
2022-12-01T03:17:49.828Z,91.65
2022-12-01T03:18:49.983Z,91.64
2022-12-01T03:19:50.368Z,91.62
2022-12-01T03:20:50.204Z,91.59
2022-12-01T03:21:50.338Z,91.59
2022-12-01T03:22:50.454Z,91.63
2022-12-01T03:23:50.654Z,91.64
2022-12-01T03:24:50.746Z,91.62
2022-12-01T03:25:50.827Z,91.61
2022-12-01T03:26:50.956Z,91.61
2022-12-01T03:28:19.744Z,91.63
2022-12-01T03:28:52.257Z,91.67
2022-12-01T03:29:51.590Z,91.69
2022-12-01T03:30:51.565Z,91.74
2022-12-01T03:31:51.667Z,91.77
2022-12-01T03:32:51.794Z,91.76
2022-12-01T03:33:51.925Z,91.79
2022-12-01T03:34:52.244Z,91.82
2022-12-01T03:35:52.204Z,91.81
2022-12-01T03:36:52.333Z,91.86
2022-12-01T03:37:52.488Z,91.91
2022-12-01T03:38:52.623Z,91.97
2022-12-01T03:39:57.242Z,92.03
2022-12-01T03:40:53.902Z,92.07
2022-12-01T03:41:53.033Z,92.07
2022-12-01T03:42:53.122Z,92.08
2022-12-01T03:43:53.242Z,92.10
2022-12-01T03:44:53.389Z,92.14
2022-12-01T03:45:53.551Z,92.18
2022-12-01T03:46:53.646Z,92.23
2022-12-01T03:47:53.781Z,92.25
2022-12-01T03:48:53.980Z,92.29
2022-12-01T03:49:54.097Z,92.32
2022-12-01T03:50:54.201Z,92.36
2022-12-01T03:51:54.311Z,92.38
2022-12-01T03:52:54.401Z,92.34
2022-12-01T03:53:54.528Z,92.32
2022-12-01T03:54:54.689Z,92.34
2022-12-01T03:55:54.783Z,92.38
2022-12-01T03:56:54.918Z,92.41
2022-12-01T03:57:55.058Z,92.44
2022-12-01T03:58:55.188Z,92.47
2022-12-01T03:59:55.371Z,92.47
2022-12-01T04:00:55.447Z,92.42
2022-12-01T04:01:55.643Z,92.42
2022-12-01T04:02:55.808Z,92.40
2022-12-01T04:03:55.835Z,92.42
2022-12-01T04:04:56.097Z,92.45
2022-12-01T04:05:56.119Z,92.45
2022-12-01T04:06:56.265Z,92.45
2022-12-01T04:07:56.481Z,92.47
2022-12-01T04:08:56.514Z,92.49
2022-12-01T04:09:56.700Z,92.51
2022-12-01T04:10:56.771Z,92.53
2022-12-01T04:11:56.903Z,92.55
2022-12-01T04:12:57.040Z,92.56
2022-12-01T04:13:57.163Z,92.55
2022-12-01T04:14:57.341Z,92.53
2022-12-01T04:15:57.494Z,92.44
2022-12-01T04:16:57.535Z,92.39
2022-12-01T04:17:57.675Z,92.35
2022-12-01T04:18:57.804Z,92.34
2022-12-01T04:19:57.972Z,92.33
2022-12-01T04:20:58.090Z,92.33
2022-12-01T04:21:58.250Z,92.36
2022-12-01T04:22:58.324Z,92.36
2022-12-01T04:23:58.470Z,92.38
2022-12-01T04:24:58.580Z,92.40
2022-12-01T04:25:58.718Z,92.42
2022-12-01T04:26:58.801Z,92.41
2022-12-01T04:27:58.931Z,92.40
2022-12-01T04:28:59.051Z,92.40
2022-12-01T04:29:59.180Z,92.38
2022-12-01T04:30:59.393Z,92.36
2022-12-01T04:31:59.461Z,92.38
2022-12-01T04:32:59.599Z,92.36
2022-12-01T04:33:59.742Z,92.34
2022-12-01T04:34:59.881Z,92.34
2022-12-01T04:36:00.040Z,92.29
2022-12-01T04:37:00.130Z,92.29
2022-12-01T04:38:00.260Z,92.34
2022-12-01T04:39:00.400Z,92.34
2022-12-01T04:40:00.559Z,92.34
2022-12-01T04:41:00.665Z,92.31
2022-12-01T04:42:00.818Z,92.32
2022-12-01T04:43:00.925Z,92.31
2022-12-01T04:44:01.056Z,92.31
2022-12-01T04:45:01.215Z,92.31
2022-12-01T04:46:01.318Z,92.30
2022-12-01T04:47:01.484Z,92.34
2022-12-01T04:48:01.582Z,92.38
2022-12-01T04:49:01.718Z,92.40
2022-12-01T04:50:01.886Z,92.39
2022-12-01T04:51:01.982Z,92.39
2022-12-01T04:52:02.126Z,92.43
2022-12-01T04:53:02.274Z,92.47
2022-12-01T04:54:02.375Z,92.50
2022-12-01T04:55:02.528Z,92.50
2022-12-01T04:56:02.643Z,92.51
2022-12-01T04:57:02.781Z,92.48
2022-12-01T04:58:02.921Z,92.51
2022-12-01T04:59:02.983Z,92.49
2022-12-01T05:00:03.189Z,92.49
2022-12-01T05:01:03.360Z,92.46
2022-12-01T05:02:03.402Z,92.47
2022-12-01T05:03:03.550Z,92.44
2022-12-01T05:04:03.651Z,92.42
2022-12-01T05:05:03.843Z,92.43
2022-12-01T05:06:03.932Z,92.46
2022-12-01T05:07:04.053Z,92.41
2022-12-01T05:08:04.212Z,92.37
2022-12-01T05:09:04.310Z,92.38
2022-12-01T05:10:04.518Z,92.38
2022-12-01T05:11:04.622Z,92.35
2022-12-01T05:12:04.707Z,92.34
2022-12-01T05:13:04.858Z,92.32
2022-12-01T05:14:05.009Z,92.33
2022-12-01T05:15:05.097Z,92.36
2022-12-01T05:16:05.276Z,92.40
2022-12-01T05:17:05.385Z,92.38
2022-12-01T05:18:05.526Z,92.32
2022-12-01T05:19:05.596Z,92.30
2022-12-01T05:20:05.738Z,92.31
2022-12-01T05:21:05.879Z,92.32
2022-12-01T05:22:06.027Z,92.35
2022-12-01T05:23:06.797Z,92.36
2022-12-01T05:24:06.297Z,92.34
2022-12-01T05:25:06.469Z,92.31
2022-12-01T05:26:06.563Z,92.31
2022-12-01T05:27:06.724Z,92.34
2022-12-01T05:28:06.825Z,92.34
2022-12-01T05:29:06.957Z,92.35
2022-12-01T05:30:07.086Z,92.33
2022-12-01T05:31:07.250Z,92.34
2022-12-01T05:32:07.353Z,92.26
2022-12-01T05:33:07.521Z,92.20
2022-12-01T05:34:07.639Z,92.20
2022-12-01T05:35:07.962Z,92.21
2022-12-01T05:36:07.901Z,92.24
2022-12-01T05:37:08.042Z,92.28
2022-12-01T05:38:08.422Z,92.30
2022-12-01T05:39:08.315Z,92.32
2022-12-01T05:40:08.480Z,92.27
2022-12-01T05:41:08.570Z,92.26
2022-12-01T05:42:08.706Z,92.30
2022-12-01T05:43:08.842Z,92.30
2022-12-01T05:44:08.960Z,92.33
2022-12-01T05:45:09.110Z,92.28
2022-12-01T05:46:09.323Z,92.28
2022-12-01T05:47:09.381Z,92.24
2022-12-01T05:48:09.554Z,92.23
2022-12-01T05:49:09.681Z,92.28
2022-12-01T05:50:09.784Z,92.31
2022-12-01T05:51:09.914Z,92.31
2022-12-01T05:52:10.069Z,92.26
2022-12-01T05:53:10.187Z,92.27
2022-12-01T05:54:10.319Z,92.34
2022-12-01T05:55:10.457Z,92.36
2022-12-01T05:56:10.536Z,92.38
2022-12-01T05:57:10.675Z,92.38
2022-12-01T05:58:10.818Z,92.40
2022-12-01T05:59:10.979Z,92.40
2022-12-01T06:00:11.075Z,92.43
2022-12-01T06:01:11.205Z,92.47
2022-12-01T06:02:11.411Z,92.50
2022-12-01T06:03:11.497Z,92.51
2022-12-01T06:04:11.717Z,92.47
2022-12-01T06:05:11.774Z,92.48
2022-12-01T06:06:11.938Z,92.48
2022-12-01T06:07:12.024Z,92.44
2022-12-01T06:08:12.152Z,92.43
2022-12-01T06:09:12.323Z,92.41
2022-12-01T06:10:12.444Z,92.35
2022-12-01T06:11:12.552Z,92.34
2022-12-01T06:12:12.675Z,92.32
2022-12-01T06:13:12.823Z,92.29
2022-12-01T06:14:12.918Z,92.24
2022-12-01T06:15:13.062Z,92.25
2022-12-01T06:16:13.166Z,92.24
2022-12-01T06:17:13.349Z,92.24
2022-12-01T06:18:13.451Z,92.25
2022-12-01T06:19:13.589Z,92.25
2022-12-01T06:20:13.667Z,92.21
2022-12-01T06:21:13.788Z,92.14
2022-12-01T06:22:13.929Z,92.10
2022-12-01T06:23:14.068Z,92.07
2022-12-01T06:24:14.213Z,92.06
2022-12-01T06:25:14.339Z,92.10
2022-12-01T06:26:14.470Z,92.18
2022-12-01T06:27:14.617Z,92.21
2022-12-01T06:28:14.785Z,92.22
2022-12-01T06:29:14.904Z,92.20
2022-12-01T06:30:15.020Z,92.18
2022-12-01T06:31:15.158Z,92.16
2022-12-01T06:32:15.304Z,92.13
2022-12-01T06:33:15.417Z,92.13
2022-12-01T06:34:15.604Z,92.11
2022-12-01T06:35:15.685Z,92.02
2022-12-01T06:36:15.844Z,91.97
2022-12-01T06:37:15.992Z,92.00
2022-12-01T06:38:16.086Z,92.00
2022-12-01T06:39:16.303Z,91.96
2022-12-01T06:40:16.403Z,91.91
2022-12-01T06:41:16.536Z,91.90
2022-12-01T06:42:16.636Z,91.91
2022-12-01T06:43:16.795Z,91.89
2022-12-01T06:44:16.925Z,91.79
2022-12-01T06:45:17.032Z,91.72
2022-12-01T06:46:17.285Z,91.66
2022-12-01T06:47:17.311Z,91.60
2022-12-01T06:48:17.461Z,91.60
2022-12-01T06:49:17.543Z,91.61
2022-12-01T06:50:17.671Z,91.61
2022-12-01T06:51:17.811Z,91.56
2022-12-01T06:52:18.007Z,91.53
2022-12-01T06:53:18.104Z,91.51
2022-12-01T06:54:18.247Z,91.47
2022-12-01T06:55:18.351Z,91.42
2022-12-01T06:56:18.479Z,91.33
2022-12-01T06:57:18.603Z,91.22
2022-12-01T06:58:18.780Z,91.21
2022-12-01T06:59:18.908Z,91.21
2022-12-01T07:00:18.998Z,91.22
2022-12-01T07:01:19.148Z,91.17
2022-12-01T07:02:19.301Z,91.09
2022-12-01T07:03:19.508Z,91.08
2022-12-01T07:04:19.497Z,91.07
2022-12-01T07:05:19.687Z,91.01
2022-12-01T07:06:19.779Z,90.95
2022-12-01T07:07:19.888Z,90.94
2022-12-01T07:08:20.032Z,90.95
2022-12-01T07:09:20.146Z,90.95
2022-12-01T07:10:20.257Z,90.89
2022-12-01T07:11:20.391Z,90.84
2022-12-01T07:12:20.524Z,90.74
2022-12-01T07:13:20.711Z,90.69
2022-12-01T07:14:20.784Z,90.72
2022-12-01T07:15:20.925Z,90.64
2022-12-01T07:16:21.102Z,90.62
2022-12-01T07:17:21.174Z,90.69
2022-12-01T07:18:21.370Z,90.72
2022-12-01T07:19:21.432Z,90.76
2022-12-01T07:20:21.591Z,90.73
2022-12-01T07:21:21.694Z,90.64
2022-12-01T07:22:21.872Z,90.60
2022-12-01T07:23:21.978Z,90.59
2022-12-01T07:24:22.112Z,90.61
2022-12-01T07:25:22.218Z,90.63
2022-12-01T07:26:23.305Z,90.67
2022-12-01T07:27:22.483Z,90.65
2022-12-01T07:28:22.640Z,90.63
2022-12-01T07:29:22.900Z,90.62
2022-12-01T07:30:28.085Z,90.54
2022-12-01T07:31:24.072Z,90.51
2022-12-01T07:32:23.144Z,90.48
2022-12-01T07:33:23.290Z,90.42
2022-12-01T07:34:23.413Z,90.33
2022-12-01T07:35:23.523Z,90.37
2022-12-01T07:36:23.648Z,90.43
2022-12-01T07:37:23.779Z,90.42
2022-12-01T07:38:23.929Z,90.45
2022-12-01T07:39:24.108Z,90.43
2022-12-01T07:40:24.188Z,90.43
2022-12-01T07:41:24.331Z,90.39
2022-12-01T07:42:24.477Z,90.33
2022-12-01T07:43:24.637Z,90.31
2022-12-01T07:44:24.825Z,90.26
2022-12-01T07:45:24.862Z,90.22
2022-12-01T07:46:25.069Z,90.16
2022-12-01T07:47:25.136Z,90.17
2022-12-01T07:48:25.256Z,90.14
2022-12-01T07:49:25.916Z,90.16
2022-12-01T07:50:25.525Z,90.21
2022-12-01T07:51:25.668Z,90.20
2022-12-01T07:52:25.795Z,90.19
2022-12-01T07:53:25.954Z,90.19
2022-12-01T07:54:26.045Z,90.19
2022-12-01T07:55:26.178Z,90.20
2022-12-01T07:56:26.322Z,90.23
2022-12-01T07:57:26.453Z,90.19
2022-12-01T07:58:26.833Z,90.10
2022-12-01T07:59:26.715Z,90.05
2022-12-01T08:00:26.877Z,89.98
2022-12-01T08:01:27.086Z,89.94
2022-12-01T08:02:27.153Z,89.91
2022-12-01T08:03:27.294Z,89.95
2022-12-01T08:04:27.402Z,89.90
2022-12-01T08:05:27.512Z,89.85
2022-12-01T08:06:27.645Z,89.80
2022-12-01T08:07:29.978Z,89.83
2022-12-01T08:08:27.959Z,89.84
2022-12-01T08:09:28.031Z,89.86
2022-12-01T08:10:28.157Z,89.81
2022-12-01T08:11:28.298Z,89.80
2022-12-01T08:12:28.442Z,89.84
2022-12-01T08:13:28.600Z,89.85
2022-12-01T08:14:28.700Z,89.84
2022-12-01T08:15:28.878Z,89.78
2022-12-01T08:16:28.993Z,89.72
2022-12-01T08:17:29.101Z,89.76
2022-12-01T08:18:29.257Z,89.84
2022-12-01T08:19:29.375Z,89.80
2022-12-01T08:20:29.517Z,89.62
2022-12-01T08:21:29.605Z,89.63
2022-12-01T08:22:29.758Z,89.54
2022-12-01T08:23:29.865Z,89.51
2022-12-01T08:24:30.013Z,89.49
2022-12-01T08:25:30.194Z,89.50
2022-12-01T08:26:30.267Z,89.50
2022-12-01T08:27:30.392Z,89.56
2022-12-01T08:28:30.548Z,89.52
2022-12-01T08:29:30.767Z,89.47
2022-12-01T08:30:30.770Z,89.51
2022-12-01T08:31:30.928Z,89.46
2022-12-01T08:32:31.011Z,89.41
2022-12-01T08:33:31.166Z,89.45
2022-12-01T08:34:31.264Z,89.38
2022-12-01T08:35:31.425Z,89.31
2022-12-01T08:36:31.554Z,89.26
2022-12-01T08:37:31.672Z,89.26
2022-12-01T08:38:31.973Z,89.23
2022-12-01T08:39:31.944Z,89.20
2022-12-01T08:40:32.071Z,89.20
2022-12-01T08:41:32.268Z,89.14
2022-12-01T08:42:32.331Z,88.79
2022-12-01T08:43:56.745Z,88.63
2022-12-01T08:44:33.621Z,88.40
2022-12-01T08:45:34.340Z,88.47
2022-12-01T08:46:32.910Z,88.70
2022-12-01T08:47:33.000Z,88.81
2022-12-01T08:48:33.139Z,88.86
2022-12-01T08:49:33.276Z,88.82
2022-12-01T08:50:33.399Z,88.81
2022-12-01T08:51:33.529Z,88.77
2022-12-01T08:52:33.657Z,88.62
2022-12-01T08:53:33.800Z,88.46
2022-12-01T08:54:33.935Z,88.46
2022-12-01T08:55:34.067Z,88.33
2022-12-01T08:56:34.210Z,87.86
2022-12-01T08:57:34.367Z,87.72
2022-12-01T08:58:34.519Z,87.84
2022-12-01T08:59:34.605Z,87.89
2022-12-01T09:00:34.737Z,87.90
2022-12-01T09:01:34.953Z,87.97
2022-12-01T09:02:35.090Z,87.93
2022-12-01T09:03:35.167Z,87.93
2022-12-01T09:04:35.245Z,87.88
2022-12-01T09:05:35.414Z,87.30
2022-12-01T09:06:35.516Z,87.33
2022-12-01T09:07:35.683Z,87.44
2022-12-01T09:08:35.795Z,87.52
2022-12-01T09:09:35.903Z,87.57
2022-12-01T09:10:36.043Z,87.44
2022-12-01T09:11:36.183Z,87.47
2022-12-01T09:12:36.353Z,87.45
2022-12-01T09:13:36.453Z,87.18
2022-12-01T09:14:36.593Z,87.18
2022-12-01T09:15:36.720Z,87.16
2022-12-01T09:16:36.993Z,87.25
2022-12-01T09:17:37.054Z,87.35
2022-12-01T09:18:37.207Z,87.32
2022-12-01T09:19:37.274Z,87.30
2022-12-01T09:20:37.412Z,87.18
2022-12-01T09:21:37.561Z,87.14
2022-12-01T09:22:37.710Z,87.09
2022-12-01T09:23:37.810Z,86.93
2022-12-01T09:24:37.951Z,86.87
2022-12-01T09:25:38.151Z,87.00
2022-12-01T09:26:38.232Z,87.00
2022-12-01T09:27:38.378Z,86.95
2022-12-01T09:28:38.508Z,86.63
2022-12-01T09:29:38.665Z,86.82
2022-12-01T09:30:38.763Z,86.68
2022-12-01T09:31:38.956Z,86.74
2022-12-01T09:32:39.216Z,86.64
2022-12-01T09:33:39.148Z,86.56
2022-12-01T09:34:39.291Z,86.67
2022-12-01T09:35:39.425Z,86.49
2022-12-01T09:36:39.563Z,86.16
2022-12-01T09:37:39.705Z,85.94
2022-12-01T09:38:39.850Z,86.16
2022-12-01T09:39:39.986Z,86.11
2022-12-01T09:40:40.145Z,85.87
2022-12-01T09:41:40.257Z,85.96
2022-12-01T09:42:40.419Z,86.19
2022-12-01T09:43:40.547Z,86.16
2022-12-01T09:44:40.636Z,85.99
2022-12-01T09:45:40.901Z,86.07
2022-12-01T09:46:40.930Z,86.10
2022-12-01T09:47:41.042Z,85.97
2022-12-01T09:48:41.143Z,86.03
2022-12-01T09:49:41.282Z,85.78
2022-12-01T09:50:41.431Z,85.82
2022-12-01T09:51:41.551Z,85.69
2022-12-01T09:52:41.710Z,85.58
2022-12-01T09:53:41.811Z,85.78
2022-12-01T09:54:41.973Z,86.02
2022-12-01T09:55:42.080Z,85.94
2022-12-01T09:56:42.197Z,85.72
2022-12-01T09:57:42.292Z,85.56
2022-12-01T09:58:42.419Z,85.68
2022-12-01T09:59:42.551Z,85.75
2022-12-01T10:00:42.735Z,85.97
2022-12-01T10:01:42.885Z,86.02
2022-12-01T10:02:42.942Z,86.13
2022-12-01T10:03:43.077Z,85.97
2022-12-01T10:04:43.227Z,85.75
2022-12-01T10:06:02.968Z,85.85
2022-12-01T10:06:44.459Z,85.95
2022-12-01T10:07:43.702Z,85.85
2022-12-01T10:08:43.706Z,85.82
2022-12-01T10:09:43.865Z,85.78
2022-12-01T10:10:43.957Z,85.83
2022-12-01T10:11:44.109Z,86.04
2022-12-01T10:12:44.266Z,86.10
2022-12-01T10:13:44.355Z,85.88
2022-12-01T10:14:44.515Z,85.94
2022-12-01T10:15:44.634Z,86.09
2022-12-01T10:16:44.818Z,86.14
2022-12-01T10:17:44.904Z,86.12
2022-12-01T10:18:45.012Z,86.19
2022-12-01T10:19:45.143Z,86.13
2022-12-01T10:20:45.294Z,86.24
2022-12-01T10:21:45.406Z,86.31
2022-12-01T10:22:45.742Z,86.34
2022-12-01T10:23:45.661Z,86.33
2022-12-01T10:24:45.820Z,86.38
2022-12-01T10:25:46.014Z,86.25
2022-12-01T10:26:46.041Z,86.23
2022-12-01T10:27:46.191Z,86.42
2022-12-01T10:28:46.293Z,86.26
2022-12-01T10:29:47.700Z,86.15
2022-12-01T10:30:46.580Z,86.24
2022-12-01T10:31:46.798Z,86.11
2022-12-01T10:32:46.852Z,85.99
2022-12-01T10:33:47.217Z,85.97
2022-12-01T10:34:47.120Z,86.13
2022-12-01T10:35:47.290Z,86.07
2022-12-01T10:36:47.399Z,86.22
2022-12-01T10:37:47.599Z,86.21
2022-12-01T10:38:47.639Z,86.32
2022-12-01T10:39:48.269Z,86.36
2022-12-01T10:40:47.899Z,86.39
2022-12-01T10:41:48.072Z,86.49
2022-12-01T10:42:48.160Z,86.61
2022-12-01T10:43:48.306Z,86.65
2022-12-01T10:44:48.451Z,86.62
2022-12-01T10:45:48.679Z,86.69
2022-12-01T10:46:48.716Z,86.74
2022-12-01T10:47:48.821Z,86.63
2022-12-01T10:48:48.955Z,86.49
2022-12-01T10:49:49.402Z,86.55
2022-12-01T10:50:49.236Z,86.59
2022-12-01T10:51:49.492Z,86.66
2022-12-01T10:52:49.529Z,86.79
2022-12-01T10:53:49.647Z,86.82
2022-12-01T10:54:49.776Z,86.89
2022-12-01T10:55:49.904Z,87.01
2022-12-01T10:56:50.070Z,87.18
2022-12-01T10:57:50.204Z,87.27
2022-12-01T10:58:50.296Z,87.34
2022-12-01T10:59:50.708Z,87.29
2022-12-01T11:00:59.483Z,87.35
2022-12-01T11:01:51.805Z,87.39
2022-12-01T11:02:50.966Z,87.27
2022-12-01T11:03:50.998Z,87.29
2022-12-01T11:04:51.130Z,87.22
2022-12-01T11:05:51.274Z,87.39
2022-12-01T11:06:51.428Z,87.29
2022-12-01T11:07:51.513Z,87.26
2022-12-01T11:08:51.576Z,87.43
2022-12-01T11:09:51.798Z,87.46
2022-12-01T11:10:51.841Z,87.52
2022-12-01T11:11:51.988Z,87.54
2022-12-01T11:12:52.072Z,87.70
2022-12-01T11:13:52.208Z,87.77
2022-12-01T11:14:52.349Z,87.85
2022-12-01T11:15:52.490Z,87.88
2022-12-01T11:16:52.694Z,87.94
2022-12-01T11:17:52.767Z,87.98
2022-12-01T11:18:52.899Z,87.93
2022-12-01T11:19:53.339Z,87.98
2022-12-01T11:20:53.107Z,87.98
2022-12-01T11:21:53.306Z,87.98
2022-12-01T11:22:53.366Z,87.95
2022-12-01T11:23:53.514Z,87.95
2022-12-01T11:24:53.657Z,88.02
2022-12-01T11:25:53.785Z,88.08
2022-12-01T11:26:53.973Z,88.02
2022-12-01T11:27:53.996Z,88.02
2022-12-01T11:28:54.168Z,87.97
2022-12-01T11:29:54.277Z,88.08
2022-12-01T11:30:56.678Z,88.26
2022-12-01T11:31:54.609Z,88.36
2022-12-01T11:32:54.693Z,88.40
2022-12-01T11:33:54.783Z,88.42
2022-12-01T11:34:54.903Z,88.50
2022-12-01T11:35:58.806Z,88.55
2022-12-01T11:36:55.197Z,88.63
2022-12-01T11:38:27.813Z,88.66
2022-12-01T11:38:56.443Z,88.68
2022-12-01T11:39:55.561Z,88.69
2022-12-01T11:40:55.734Z,88.71
2022-12-01T11:41:55.861Z,88.66
2022-12-01T11:42:55.941Z,88.69
2022-12-01T11:44:01.493Z,88.76
2022-12-01T11:44:57.226Z,88.85
2022-12-01T11:45:56.456Z,88.88
2022-12-01T11:47:21.474Z,88.91
2022-12-01T11:47:57.589Z,88.98
2022-12-01T11:48:56.730Z,88.95
2022-12-01T11:49:56.813Z,88.94
2022-12-01T11:50:57.040Z,88.92
2022-12-01T11:51:57.207Z,88.92
2022-12-01T11:52:57.237Z,88.96
2022-12-01T11:53:57.331Z,88.96
2022-12-01T11:54:57.465Z,88.93
2022-12-01T11:55:57.616Z,88.93
2022-12-01T11:57:31.850Z,88.92
2022-12-01T11:57:58.839Z,88.91
2022-12-01T11:58:57.977Z,88.93
2022-12-01T11:59:58.097Z,88.97
2022-12-01T12:00:58.237Z,88.98
2022-12-01T12:01:58.450Z,88.99
2022-12-01T12:02:58.598Z,88.93
2022-12-01T12:03:58.666Z,88.85
2022-12-01T12:04:58.827Z,88.90
2022-12-01T12:06:17.871Z,88.92
2022-12-01T12:07:00.075Z,89.00
2022-12-01T12:07:59.199Z,89.05
2022-12-01T12:08:59.359Z,89.07
2022-12-01T12:09:59.432Z,89.03
2022-12-01T12:10:59.630Z,88.98
2022-12-01T12:11:59.783Z,88.87
2022-12-01T12:12:59.841Z,88.85
2022-12-01T12:13:59.953Z,88.88
2022-12-01T12:15:00.074Z,88.85
2022-12-01T12:16:00.256Z,88.92
2022-12-01T12:17:00.416Z,88.97
2022-12-01T12:18:00.500Z,88.98
2022-12-01T12:19:00.561Z,88.97
2022-12-01T12:20:09.100Z,88.89
2022-12-01T12:21:01.832Z,88.90
2022-12-01T12:22:00.982Z,88.97
2022-12-01T12:23:01.159Z,89.00
2022-12-01T12:24:01.211Z,88.91
2022-12-01T12:25:01.358Z,88.84
2022-12-01T12:26:01.578Z,88.92
2022-12-01T12:27:01.689Z,88.89
2022-12-01T12:28:01.753Z,88.92
2022-12-01T12:29:01.878Z,88.97
2022-12-01T12:30:01.960Z,89.07
2022-12-01T12:31:02.175Z,89.16
2022-12-01T12:32:02.274Z,89.22
2022-12-01T12:33:02.386Z,89.23
2022-12-01T12:34:02.476Z,89.29
2022-12-01T12:35:02.609Z,89.31
2022-12-01T12:36:02.763Z,89.17
2022-12-01T12:37:02.886Z,89.13
2022-12-01T12:38:03.035Z,89.13
2022-12-01T12:39:03.176Z,89.15
2022-12-01T12:40:03.302Z,89.14
2022-12-01T12:41:03.436Z,89.16
2022-12-01T12:42:03.604Z,89.17
2022-12-01T12:43:03.694Z,89.17
2022-12-01T12:44:03.824Z,89.23
2022-12-01T12:45:03.964Z,89.23
2022-12-01T12:46:04.204Z,89.21
2022-12-01T12:47:04.371Z,89.30
2022-12-01T12:48:04.366Z,89.34
2022-12-01T12:49:19.313Z,89.44
2022-12-01T12:50:05.654Z,89.49
2022-12-01T12:51:04.783Z,89.56
2022-12-01T12:52:08.316Z,89.64
2022-12-01T12:53:05.034Z,89.69
2022-12-01T12:54:05.233Z,89.74